Time;durP1;ratioP1;P1;durP2;ratioP2;P2;SDS_P1;SDS_P2;PMS_P1;PMS_P2;Temp;Humidity;BMP_temperature;BMP_pressure;BME280_temperature;BME280_humidity;BME280_pressure;Samples;Min_cycle;Max_cycle;Signal;HPM_P1;HPM_P2
2022/01/13 00:02:43;;;;;;;36.75;18.87;;;;;;;2.16;77.08;102182.73;2021726;88;27714;-60
2022/01/13 00:05:44;;;;;;;36.73;18.00;;;;;;;2.15;77.06;102174.34;2021647;87;28532;-60
2022/01/13 00:08:46;;;;;;;36.75;17.67;;;;;;;2.15;77.14;102183.19;2022119;88;31860;-59
2022/01/13 00:11:50;;;;;;;37.03;19.90;;;;;;;2.15;77.09;102180.95;2021547;87;33832;-59
2022/01/13 00:15:10;;;;;;;35.15;17.95;;;;;;;2.15;77.10;102185.83;2021732;87;29284;-60
2022/01/13 00:21:14;;;;;;;30.50;16.52;;;;;;;2.13;77.17;102180.50;2037551;87;29053;-59
2022/01/13 00:24:05;;;;;;;31.87;16.10;;;;;;;2.14;77.19;102181.41;2037736;86;30959;-59
2022/01/13 00:27:11;;;;;;;34.18;18.15;;;;;;;2.13;77.21;102191.08;2037116;86;33595;-60
2022/01/13 00:30:16;;;;;;;31.37;16.82;;;;;;;2.16;77.21;102191.99;2037521;85;29413;-59
2022/01/13 00:33:17;;;;;;;29.23;17.45;;;;;;;2.18;77.26;102200.84;2043583;87;27678;-60
2022/01/13 00:36:18;;;;;;;26.65;15.63;;;;;;;2.19;77.22;102206.59;2043955;85;28433;-60
2022/01/13 00:39:19;;;;;;;33.08;17.95;;;;;;;2.19;77.24;102196.89;2044769;85;31773;-60
2022/01/13 00:42:22;;;;;;;32.10;17.40;;;;;;;2.22;77.24;102198.71;2030281;86;32896;-60
2022/01/13 00:45:25;;;;;;;29.70;16.27;;;;;;;2.23;77.21;102209.30;2024564;87;30098;-60
2022/01/13 00:48:27;;;;;;;27.93;16.93;;;;;;;2.21;77.11;102213.67;2024481;86;27528;-60
2022/01/13 00:51:28;;;;;;;28.77;15.53;;;;;;;2.22;77.15;102214.58;2023781;88;30145;-60
2022/01/13 00:54:32;;;;;;;27.40;16.37;;;;;;;2.23;77.15;102213.27;2030443;85;31408;-60
2022/01/13 00:57:34;;;;;;;28.75;16.12;;;;;;;2.22;77.19;102228.67;2044185;87;32996;-60
2022/01/13 01:00:36;;;;;;;30.90;17.10;;;;;;;2.24;77.21;102233.97;2044276;86;30489;-60
2022/01/13 01:03:38;;;;;;;24.95;16.57;;;;;;;2.27;77.19;102234.03;2044319;85;27688;-60
2022/01/13 01:06:40;;;;;;;32.08;17.35;;;;;;;2.27;77.14;102242.88;2043292;87;28421;-60
2022/01/13 01:09:48;;;;;;;31.07;16.73;;;;;;;2.26;77.14;102243.73;2044259;87;31167;-60
2022/01/13 01:12:45;;;;;;;32.35;16.25;;;;;;;2.27;77.18;102221.71;1992521;87;32891;-59
2022/01/13 01:15:52;;;;;;;27.87;15.90;;;;;;;2.29;77.16;102192.63;1992370;89;29490;-60
2022/01/13 01:19:01;;;;;;;32.50;17.55;;;;;;;2.28;77.14;102185.56;1992116;88;27738;-59
2022/01/13 01:28:19;;;;;;;28.07;15.93;;;;;;;2.27;77.13;102173.20;1895939;93;33119;-60
2022/01/13 01:31:18;;;;;;;32.38;15.90;;;;;;;2.26;77.08;102159.52;1965388;90;30023;-59
2022/01/13 01:34:37;;;;;;;37.25;16.55;;;;;;;2.26;77.15;102151.59;1965639;90;27758;-64
2022/01/13 01:37:29;;;;;;;29.98;17.02;;;;;;;2.27;77.12;102155.60;1960831;90;28837;-60
2022/01/13 01:40:31;;;;;;;29.23;17.40;;;;;;;2.27;77.11;102154.28;1939252;91;31084;-60
2022/01/13 01:43:33;;;;;;;35.00;17.52;;;;;;;2.29;77.17;102151.64;1913751;93;34462;-58
2022/01/13 01:46:38;;;;;;;37.05;18.17;;;;;;;2.32;77.16;102141.56;1913562;93;30004;-58
2022/01/13 01:49:48;;;;;;;32.28;18.23;;;;;;;2.33;77.16;102140.66;1884002;94;27811;-57
2022/01/13 01:52:52;;;;;;;35.48;19.67;;;;;;;2.33;77.13;102148.19;1903859;93;28689;-59
2022/01/13 01:55:56;;;;;;;35.48;17.87;;;;;;;2.36;77.15;102152.62;1903777;93;31786;-59
2022/01/13 01:59:01;;;;;;;32.48;19.27;;;;;;;2.36;77.11;102148.23;1903812;93;33012;-59
2022/01/13 02:02:02;;;;;;;34.33;19.20;;;;;;;2.36;77.11;102167.16;1953170;88;29783;-60
2022/01/13 02:05:05;;;;;;;40.23;20.32;;;;;;;2.34;77.14;102149.97;2010077;88;27730;-60
2022/01/13 02:08:07;;;;;;;33.38;19.57;;;;;;;2.36;77.12;102140.72;2009940;88;29502;-59
2022/01/13 02:11:09;;;;;;;35.70;19.45;;;;;;;2.37;77.11;102150.43;2024912;86;30821;-59
2022/01/13 02:17:34;;;;;;;34.00;18.92;;;;;;;2.38;77.02;102156.17;2008579;88;30012;-60
2022/01/13 02:20:47;;;;;;;37.08;19.67;;;;;;;2.36;76.93;102165.84;2083785;85;27675;-60
2022/01/13 02:23:49;;;;;;;37.40;18.87;;;;;;;2.33;76.90;102148.59;2086723;83;29310;-60
2022/01/13 02:26:53;;;;;;;34.48;19.50;;;;;;;2.32;76.95;102154.34;2021826;86;27700;-60
2022/01/13 02:29:54;;;;;;;36.13;19.05;;;;;;;2.33;76.94;102163.14;2018569;88;33922;-59
2022/01/13 02:32:56;;;;;;;35.68;20.08;;;;;;;2.33;76.87;102161.41;2010963;88;30847;-60
2022/01/13 02:36:06;;;;;;;35.05;19.95;;;;;;;2.34;76.87;102149.05;2075424;85;27699;-60
2022/01/13 02:39:04;;;;;;;34.53;20.20;;;;;;;2.33;76.78;102138.02;2073677;85;28716;-60
2022/01/13 02:42:12;;;;;;;40.67;20.85;;;;;;;2.31;76.78;102155.66;2057235;85;31943;-59
2022/01/13 02:45:16;;;;;;;42.07;22.27;;;;;;;2.30;76.83;102167.09;2019852;87;33152;-60
2022/01/13 02:48:27;;;;;;;34.78;21.42;;;;;;;2.27;76.85;102156.92;2045677;87;33454;-59
2022/01/13 02:51:29;;;;;;;39.42;22.17;;;;;;;2.31;76.92;102159.62;2045955;86;27733;-59
2022/01/13 02:54:31;;;;;;;41.37;22.42;;;;;;;2.31;76.92;102158.30;2046292;87;29924;-60
2022/01/13 02:57:35;;;;;;;44.83;23.90;;;;;;;2.31;76.89;102149.04;2045982;86;32399;-60
2022/01/13 03:00:38;;;;;;;43.25;24.02;;;;;;;2.31;76.91;102143.30;2046315;86;33102;-60
2022/01/13 03:03:41;;;;;;;46.88;26.77;;;;;;;2.29;76.95;102152.97;2025971;86;30391;-59
2022/01/13 03:06:43;;;;;;;47.93;27.13;;;;;;;2.30;76.95;102149.91;2046174;86;27697;-60
2022/01/13 03:09:45;;;;;;;44.10;25.77;;;;;;;2.27;76.90;102145.44;2046012;87;29812;-59
2022/01/13 03:12:47;;;;;;;50.05;27.90;;;;;;;2.28;76.91;102149.45;2046299;87;31096;-62
2022/01/13 03:15:50;;;;;;;47.70;28.85;;;;;;;2.29;76.87;102167.51;2045943;87;34171;-59
2022/01/13 03:18:51;;;;;;;51.73;30.00;;;;;;;2.29;76.86;102163.55;2045966;87;30489;-60
2022/01/13 03:21:53;;;;;;;53.90;29.32;;;;;;;2.29;76.80;102152.97;2046174;87;27705;-59
2022/01/13 03:24:57;;;;;;;51.00;30.97;;;;;;;2.28;76.76;102143.25;2048772;86;29976;-59
2022/01/13 03:28:07;;;;;;;54.23;30.72;;;;;;;2.26;76.70;102151.59;2045449;87;31849;-59
2022/01/13 03:31:08;;;;;;;49.70;28.60;;;;;;;2.26;76.67;102141.02;2046358;86;34423;-60
2022/01/13 03:34:13;;;;;;;55.12;29.92;;;;;;;2.25;76.62;102151.13;2089027;84;30822;-64
2022/01/13 03:37:15;;;;;;;35.33;20.20;;;;;;;2.23;76.51;102142.31;2112171;84;28042;-63
2022/01/13 03:40:16;;;;;;;48.50;26.85;;;;;;;2.19;76.36;102144.45;2112510;84;29080;-59
2022/01/13 03:43:18;;;;;;;48.13;25.50;;;;;;;2.16;76.31;102139.11;2101255;83;32389;-61
2022/01/13 03:46:21;;;;;;;47.73;26.25;;;;;;;2.14;76.23;102137.78;2075554;85;33452;-59
2022/01/13 03:49:23;;;;;;;50.67;25.65;;;;;;;2.12;76.17;102143.02;2048754;86;30476;-59
2022/01/13 03:52:51;;;;;;;40.00;24.32;;;;;;;2.11;76.19;102134.63;2046187;86;27689;-60
2022/01/13 03:56:46;;;;;;;45.98;25.27;;;;;;;2.12;76.09;102131.13;2042740;87;28531;-59
2022/01/13 04:00:07;;;;;;;43.63;24.63;;;;;;;2.11;76.00;102127.15;2062551;85;28355;-59
2022/01/13 04:03:09;;;;;;;46.95;27.50;;;;;;;2.11;76.05;102119.22;2039915;87;32409;-62
2022/01/13 04:06:23;;;;;;;48.65;22.85;;;;;;;2.10;75.88;102120.08;2040079;87;30998;-60
2022/01/13 04:09:41;;;;;;;46.15;23.18;;;;;;;2.09;75.89;102125.78;2042347;87;27646;-61
2022/01/13 04:12:43;;;;;;;40.58;22.32;;;;;;;2.08;75.70;102128.42;2042577;86;28892;-60
2022/01/13 04:15:47;;;;;;;49.50;23.67;;;;;;;2.07;75.75;102123.55;2042400;87;32248;-64
2022/01/13 04:18:50;;;;;;;42.58;20.85;;;;;;;2.07;75.68;102114.75;2042918;86;32895;-60
2022/01/13 04:21:51;;;;;;;33.48;21.35;;;;;;;2.07;75.66;102112.10;2042963;87;29636;-60
2022/01/13 04:24:54;;;;;;;42.17;22.62;;;;;;;2.09;75.69;102117.86;2042752;87;27663;-62
2022/01/13 04:28:01;;;;;;;37.10;23.18;;;;;;;2.09;75.61;102117.86;2042737;87;29082;-59
2022/01/13 04:31:03;;;;;;;40.90;21.40;;;;;;;2.08;75.52;102111.23;2042012;86;31101;-60
2022/01/13 04:34:07;;;;;;;37.28;21.42;;;;;;;2.08;75.56;102104.63;2064187;85;28215;-60
2022/01/13 04:37:09;;;;;;;39.38;21.70;;;;;;;2.10;75.64;102103.77;2044539;87;29680;-59
2022/01/13 04:40:13;;;;;;;39.13;22.58;;;;;;;2.12;75.51;102103.37;2054340;86;28305;-59
2022/01/13 04:43:15;;;;;;;40.27;22.13;;;;;;;2.11;75.23;102087.05;2050595;86;28679;-59
2022/01/13 04:46:17;;;;;;;45.58;23.02;;;;;;;2.11;75.23;102087.05;2042858;86;31351;-59
2022/01/13 04:49:20;;;;;;;40.92;22.82;;;;;;;2.15;75.44;102086.68;2018204;87;32955;-59
2022/01/13 04:52:21;;;;;;;43.33;22.22;;;;;;;2.18;75.42;102076.57;2015442;88;30172;-59
2022/01/13 04:55:30;;;;;;;42.70;21.95;;;;;;;2.17;75.37;102065.53;2017535;87;27669;-60
2022/01/13 04:58:30;;;;;;;44.35;22.40;;;;;;;2.17;75.34;102062.45;2021201;87;28474;-59
2022/01/13 05:01:33;;;;;;;45.60;22.85;;;;;;;2.18;75.35;102061.58;2051084;86;30842;-59
2022/01/13 05:04:35;;;;;;;41.73;22.67;;;;;;;2.19;75.36;102060.71;2015384;87;32890;-57
2022/01/13 05:07:37;;;;;;;42.27;24.10;;;;;;;2.21;75.34;102051.50;2016410;88;30886;-57
2022/01/13 05:10:39;;;;;;;44.90;24.00;;;;;;;2.22;75.33;102063.41;2018582;87;28328;-59
2022/01/13 05:13:41;;;;;;;45.85;24.67;;;;;;;2.23;75.31;102059.89;2047452;86;29132;-59
2022/01/13 05:17:02;;;;;;;43.02;24.65;;;;;;;2.23;75.26;102059.02;2016686;86;31413;-62
2022/01/13 05:20:13;;;;;;;49.45;25.88;;;;;;;2.23;75.29;102061.67;2018700;86;33667;-59
2022/01/13 05:23:02;;;;;;;47.00;25.15;;;;;;;2.23;75.31;102063.86;2020320;87;29583;-59
2022/01/13 05:26:03;;;;;;;42.90;23.70;;;;;;;2.24;75.33;102062.09;2018325;86;27697;-61
2022/01/13 05:29:05;;;;;;;39.65;23.35;;;;;;;2.25;75.32;102062.55;2018725;88;30003;-60
2022/01/13 05:32:08;;;;;;;40.58;22.82;;;;;;;2.26;75.32;102059.94;2018182;87;30816;-60
2022/01/13 05:35:11;;;;;;;42.58;22.07;;;;;;;2.28;75.31;102055.98;2018257;88;34203;-61
2022/01/13 05:38:13;;;;;;;37.83;22.50;;;;;;;2.28;75.35;102050.28;2019649;87;30184;-60
2022/01/13 05:41:16;;;;;;;38.15;21.20;;;;;;;2.32;75.36;102047.23;2053746;86;27667;-60
2022/01/13 05:44:19;;;;;;;40.48;22.13;;;;;;;2.34;75.32;102042.85;2059706;86;29089;-60
2022/01/13 05:47:21;;;;;;;38.92;21.50;;;;;;;2.36;75.31;102037.16;2030645;86;31223;-60
2022/01/13 05:50:25;;;;;;;36.10;20.48;;;;;;;2.36;75.28;102044.18;2014993;88;33549;-60
2022/01/13 05:53:27;;;;;;;40.55;21.27;;;;;;;2.37;75.33;102043.31;2014605;88;29789;-59
2022/01/13 05:56:28;;;;;;;38.17;20.48;;;;;;;2.39;75.33;102043.81;2015207;88;27816;-64
2022/01/13 05:59:31;;;;;;;37.00;20.95;;;;;;;2.41;75.33;102044.69;2015032;88;29111;-59
2022/01/13 06:02:32;;;;;;;36.15;21.07;;;;;;;2.43;75.32;102038.11;2027782;86;31082;-60
2022/01/13 06:05:37;;;;;;;36.63;21.17;;;;;;;2.46;75.35;102038.16;2056450;86;34118;-60
2022/01/13 06:08:38;;;;;;;27.43;14.40;;;;;;;2.48;75.28;102047.00;1992290;89;30057;-59
2022/01/13 06:11:44;;;;;;;36.35;18.90;;;;;;;2.50;75.33;102044.36;2016117;88;27650;-60
2022/01/13 06:14:46;;;;;;;32.67;20.05;;;;;;;2.53;75.40;102039.98;1982936;89;28851;-61
2022/01/13 06:17:51;;;;;;;32.48;19.32;;;;;;;2.56;75.33;102033.86;2012204;88;31684;-60
2022/01/13 06:20:53;;;;;;;32.05;18.35;;;;;;;2.59;75.34;102031.23;2026279;87;32397;-62
2022/01/13 06:23:55;;;;;;;32.10;19.48;;;;;;;2.60;75.33;102036.97;2052737;85;30625;-60
2022/01/13 06:26:57;;;;;;;33.65;20.27;;;;;;;2.61;75.24;102037.43;2067507;85;27647;-60
2022/01/13 06:29:59;;;;;;;32.95;19.65;;;;;;;2.62;75.24;102040.53;2026269;87;29874;-62
2022/01/13 06:33:01;;;;;;;33.92;20.12;;;;;;;2.64;75.24;102045.41;2000336;88;32576;-61
2022/01/13 06:36:04;;;;;;;37.03;20.80;;;;;;;2.66;75.30;102036.16;2009123;88;33356;-60
2022/01/13 06:39:05;;;;;;;33.02;20.62;;;;;;;2.68;75.30;102034.41;2068713;84;30449;-60
2022/01/13 06:42:08;;;;;;;33.00;20.68;;;;;;;2.68;75.26;102040.61;2109411;84;27696;-60
2022/01/13 06:45:11;;;;;;;34.50;20.15;;;;;;;2.69;75.28;102033.55;2108606;84;28076;-60
2022/01/13 06:48:14;;;;;;;34.80;20.20;;;;;;;2.69;75.29;102035.78;2074258;85;31081;-60
2022/01/13 06:51:15;;;;;;;36.40;19.98;;;;;;;2.71;75.31;102050.33;2051246;86;33780;-60
2022/01/13 06:54:18;;;;;;;31.42;19.52;;;;;;;2.71;75.32;102045.95;2052251;86;29809;-60
2022/01/13 06:57:20;;;;;;;36.20;20.72;;;;;;;2.71;75.33;102053.89;2054927;85;27661;-61
2022/01/13 07:00:24;;;;;;;35.33;20.23;;;;;;;2.73;75.43;102065.34;2054846;86;29535;-60
2022/01/13 07:03:26;;;;;;;42.67;24.00;;;;;;;2.74;75.43;102071.09;2055126;85;31861;-60
2022/01/13 07:06:27;;;;;;;39.75;20.55;;;;;;;2.78;75.46;102085.27;2055112;86;32783;-60
2022/01/13 07:09:30;;;;;;;38.80;21.62;;;;;;;2.80;75.50;102089.25;2054816;85;30808;-60
2022/01/13 07:12:32;;;;;;;33.20;20.20;;;;;;;2.84;75.54;102078.70;2050851;86;27866;-60
2022/01/13 07:15:34;;;;;;;32.55;21.17;;;;;;;2.87;75.51;102071.26;2043779;87;29253;-61
2022/01/13 07:18:38;;;;;;;37.35;20.35;;;;;;;2.91;75.51;102063.78;2043376;87;31605;-58
2022/01/13 07:21:40;;;;;;;35.13;20.32;;;;;;;2.94;75.49;102062.49;2043560;86;33372;-59
2022/01/13 07:24:42;;;;;;;33.02;18.82;;;;;;;2.96;75.48;102048.84;2045547;86;30573;-59
2022/01/13 07:27:44;;;;;;;36.68;19.25;;;;;;;3.00;75.46;102037.84;2052643;86;27627;-58
2022/01/13 07:30:47;;;;;;;41.28;18.70;;;;;;;3.06;75.46;102027.77;2052870;86;28717;-60
2022/01/13 07:33:49;;;;;;;32.15;17.75;;;;;;;3.09;75.44;102014.53;2052454;86;32337;-59
2022/01/13 07:36:56;;;;;;;36.73;19.25;;;;;;;3.12;75.34;102003.55;2052550;86;33814;-59
2022/01/13 07:39:56;;;;;;;31.48;17.95;;;;;;;3.17;75.36;102006.23;2053811;86;29782;-61
2022/01/13 07:42:58;;;;;;;31.70;16.90;;;;;;;3.22;75.32;102016.86;2055197;86;28263;-61
2022/01/13 07:46:00;;;;;;;31.77;17.42;;;;;;;3.26;75.32;102020.87;2052616;86;29141;-60
2022/01/13 07:49:02;;;;;;;36.25;17.82;;;;;;;3.33;75.32;102011.20;2047970;86;32265;-60
2022/01/13 07:52:06;;;;;;;36.23;16.87;;;;;;;3.40;75.25;102004.19;2048091;86;34328;-61
2022/01/13 07:55:09;;;;;;;36.40;17.37;;;;;;;3.44;75.14;101997.62;2048416;86;30411;-60
2022/01/13 07:58:12;;;;;;;34.92;17.85;;;;;;;3.51;75.09;101997.23;2048092;86;27718;-61
2022/01/13 08:01:14;;;;;;;29.52;16.77;;;;;;;3.57;75.06;101984.46;2048034;86;30039;-59
2022/01/13 08:04:17;;;;;;;30.72;16.55;;;;;;;3.62;74.91;101965.06;2047989;86;32018;-58
2022/01/13 08:07:19;;;;;;;30.45;16.07;;;;;;;3.67;74.83;101957.12;2048375;86;32874;-58
2022/01/13 08:10:21;;;;;;;31.60;15.75;;;;;;;3.72;74.76;101952.75;2047945;86;30498;-58
2022/01/13 08:13:23;;;;;;;38.35;16.73;;;;;;;3.74;74.63;101941.72;2048178;86;27775;-58
2022/01/13 08:16:32;;;;;;;29.07;15.50;;;;;;;3.77;74.59;101938.19;2048151;86;29544;-58
2022/01/13 08:19:48;;;;;;;27.95;15.08;;;;;;;3.82;74.57;101948.81;2047486;86;31438;-58
2022/01/13 08:22:50;;;;;;;28.77;17.30;;;;;;;3.84;74.55;101946.64;2048259;86;33015;-58
2022/01/13 08:25:52;;;;;;;28.52;15.72;;;;;;;3.88;74.43;101942.23;2048652;86;30475;-58
2022/01/13 08:28:55;;;;;;;25.02;13.98;;;;;;;3.90;74.46;101947.09;2048294;86;27634;-59
2022/01/13 08:31:57;;;;;;;31.23;15.70;;;;;;;3.95;74.43;101941.39;2047983;86;29902;-58
2022/01/13 08:34:59;;;;;;;30.25;15.25;;;;;;;3.99;74.44;101937.84;2047919;86;31918;-58
2022/01/13 08:38:15;;;;;;;24.92;13.70;;;;;;;4.06;74.46;101941.41;2047940;86;34196;-58
2022/01/13 08:41:06;;;;;;;20.05;13.22;;;;;;;4.10;74.35;101933.91;2037645;86;29675;-58
2022/01/13 08:44:10;;;;;;;30.70;13.35;;;;;;;4.16;74.34;101947.21;2036348;87;27643;-57
2022/01/13 08:47:13;;;;;;;29.65;12.85;;;;;;;4.21;74.32;101950.78;2044499;85;27741;-58
2022/01/13 08:50:16;;;;;;;31.85;13.68;;;;;;;4.26;74.20;101962.72;2044498;87;32318;-59
2022/01/13 08:53:18;;;;;;;27.58;12.18;;;;;;;4.27;74.11;101959.19;2044827;87;33173;-59
2022/01/13 08:56:21;;;;;;;22.35;12.70;;;;;;;4.31;74.15;101969.36;2044426;87;30480;-58
2022/01/13 08:59:23;;;;;;;25.45;13.88;;;;;;;4.34;74.26;101979.53;2045165;87;27633;-58
2022/01/13 09:02:29;;;;;;;27.82;13.35;;;;;;;4.41;74.20;101994.61;2044438;87;29590;-59
2022/01/13 09:05:31;;;;;;;21.48;12.28;;;;;;;4.45;74.18;101987.54;2044475;86;31059;-58
2022/01/13 09:08:33;;;;;;;20.60;11.68;;;;;;;4.49;74.10;101989.33;2059714;85;34224;-58
2022/01/13 09:11:38;;;;;;;47.90;22.13;;;;;;;4.54;74.05;101978.72;2060316;86;29727;-61
2022/01/13 09:14:42;;;;;;;30.72;18.02;;;;;;;4.56;73.96;101975.17;2037740;86;28176;-60
2022/01/13 09:17:51;;;;;;;34.25;18.48;;;;;;;4.60;73.96;101969.88;2056877;86;28723;-61
2022/01/13 09:20:52;;;;;;;25.12;15.20;;;;;;;4.63;73.85;101972.13;2056900;85;31874;-60
2022/01/13 09:23:56;;;;;;;27.30;15.00;;;;;;;4.66;73.95;101963.27;2056722;85;34018;-60
2022/01/13 09:26:58;;;;;;;25.43;14.13;;;;;;;4.70;73.89;101963.27;2056751;85;30868;-60
2022/01/13 09:30:00;;;;;;;25.37;14.07;;;;;;;4.75;73.87;101962.40;2056888;85;27958;-60
2022/01/13 09:33:02;;;;;;;24.82;14.25;;;;;;;4.76;73.75;101969.03;2056672;86;29614;-61
2022/01/13 09:36:10;;;;;;;27.48;16.52;;;;;;;4.76;73.71;101965.05;2057408;85;32165;-60
2022/01/13 09:39:10;;;;;;;28.42;15.63;;;;;;;4.74;73.59;101964.15;2057625;85;33009;-60
2022/01/13 09:42:13;;;;;;;30.37;15.48;;;;;;;4.71;73.50;101975.66;2080795;85;29850;-59
2022/01/13 09:45:17;;;;;;;29.65;18.70;;;;;;;4.66;73.36;101968.13;2049949;85;27703;-61
2022/01/13 09:48:20;;;;;;;34.30;21.23;;;;;;;4.62;73.53;101970.34;2027645;87;29602;-61
2022/01/13 09:51:28;;;;;;;38.08;20.92;;;;;;;4.60;73.67;101962.81;2027677;87;31453;-60
2022/01/13 09:54:30;;;;;;;40.88;20.37;;;;;;;4.61;73.66;101963.27;2088602;85;33526;-60
2022/01/13 09:57:32;;;;;;;31.50;18.40;;;;;;;4.65;73.73;101970.78;2091307;85;30214;-60
2022/01/13 10:00:35;;;;;;;36.05;21.45;;;;;;;4.65;73.65;101979.62;2091662;85;27745;-60
2022/01/13 10:03:39;;;;;;;28.40;16.62;;;;;;;4.65;73.60;101975.64;2091538;85;28703;-60
2022/01/13 10:06:47;;;;;;;26.07;15.43;;;;;;;4.66;73.53;101972.56;2091777;85;30461;-60
2022/01/13 10:09:57;;;;;;;27.80;14.65;;;;;;;4.66;73.60;101965.47;2091878;85;33066;-60
2022/01/13 10:13:08;;;;;;;31.02;17.55;;;;;;;4.65;73.49;101960.16;2091843;85;29799;-60
2022/01/13 10:16:24;;;;;;;29.40;16.57;;;;;;;4.66;73.61;101948.67;2031431;84;27695;-61
2022/01/13 10:19:45;;;;;;;63.87;33.92;;;;;;;4.66;73.61;101952.19;2010362;87;29550;-59
2022/01/13 10:22:48;;;;;;;76.82;40.63;;;;;;;4.65;73.49;101952.20;2028080;87;31950;-60
2022/01/13 10:25:51;;;;;;;44.00;26.23;;;;;;;4.60;73.47;101937.61;2028197;87;33124;-60
2022/01/13 10:28:55;;;;;;;50.38;25.17;;;;;;;4.63;73.61;101937.61;2028067;87;27809;-60
2022/01/13 10:31:57;;;;;;;36.77;20.57;;;;;;;4.65;73.57;101928.31;2028117;87;27714;-59
2022/01/13 10:35:05;;;;;;;38.42;19.62;;;;;;;4.69;73.68;101930.09;2027887;87;29573;-60
2022/01/13 10:38:08;;;;;;;30.72;15.95;;;;;;;4.74;73.66;101933.62;2031768;85;31991;-60
2022/01/13 10:41:37;;;;;;;24.43;13.58;;;;;;;4.82;73.65;101933.62;2033981;85;33444;-59
2022/01/13 10:44:32;;;;;;;25.68;14.50;;;;;;;4.90;73.67;101931.87;2045337;86;29733;-60
2022/01/13 10:47:37;;;;;;;32.65;17.80;;;;;;;4.99;73.61;101929.66;2022027;88;27762;-61
2022/01/13 10:50:47;;;;;;;49.83;23.27;;;;;;;5.05;73.39;101928.31;2031978;85;29801;-60
2022/01/13 10:53:51;;;;;;;38.45;19.87;;;;;;;5.06;73.31;101929.22;2048219;85;28880;-60
2022/01/13 10:57:15;;;;;;;55.67;29.27;;;;;;;5.07;73.33;101946.93;2055209;86;33869;-60
2022/01/13 11:00:24;;;;;;;40.50;20.43;;;;;;;5.10;73.35;101927.02;2079140;85;29554;-61
2022/01/13 11:03:28;;;;;;;45.88;22.90;;;;;;;5.12;73.01;101913.29;2080305;84;27658;-60
2022/01/13 11:06:31;;;;;;;36.38;20.50;;;;;;;5.08;73.12;101906.20;2080083;85;28668;-61
2022/01/13 11:09:32;;;;;;;33.15;18.62;;;;;;;5.10;73.12;101903.11;2038867;84;31909;-61
2022/01/13 11:12:43;;;;;;;22.32;13.48;;;;;;;5.10;73.05;101896.00;2072386;85;32837;-61
2022/01/13 11:15:49;;;;;;;22.65;13.70;;;;;;;5.11;73.11;101889.80;2077465;84;29651;-62
2022/01/13 11:18:49;;;;;;;25.72;13.25;;;;;;;5.14;73.02;101895.55;2078593;85;27518;-61
2022/01/13 11:21:52;;;;;;;26.05;13.75;;;;;;;5.16;73.13;101883.16;2054955;86;28702;-61
2022/01/13 11:24:54;;;;;;;27.13;15.08;;;;;;;5.19;73.01;101888.92;2055111;86;32303;-62
2022/01/13 11:27:57;;;;;;;25.27;14.07;;;;;;;5.19;73.01;101877.84;2078620;84;34003;-62
2022/01/13 11:31:00;;;;;;;29.12;14.05;;;;;;;5.20;72.95;101879.61;2080049;85;30414;-63
2022/01/13 11:34:03;;;;;;;26.75;14.25;;;;;;;5.20;72.85;101877.41;2079736;85;27743;-59
2022/01/13 11:37:06;;;;;;;28.90;15.30;;;;;;;5.19;72.84;101859.24;2076489;85;30023;-59
2022/01/13 11:40:34;;;;;;;30.68;16.17;;;;;;;5.18;72.80;101862.78;2050022;85;31847;-59
2022/01/13 11:43:41;;;;;;;25.17;15.58;;;;;;;5.15;72.72;101858.80;2015068;87;33759;-59
2022/01/13 11:46:49;;;;;;;36.93;17.95;;;;;;;5.15;72.89;101859.70;2040804;86;29683;-59
2022/01/13 11:50:05;;;;;;;26.65;14.73;;;;;;;5.16;72.74;101853.92;2041688;85;27737;-59
2022/01/13 11:53:06;;;;;;;36.35;18.57;;;;;;;5.14;72.78;101844.65;2050129;86;28520;-61
2022/01/13 11:56:09;;;;;;;38.27;20.13;;;;;;;5.13;72.82;101846.86;2049651;85;32250;-60
2022/01/13 11:59:12;;;;;;;28.15;15.60;;;;;;;5.16;72.90;101856.59;2048595;86;34120;-59
2022/01/13 12:02:30;;;;;;;29.82;15.43;;;;;;;5.16;72.78;101856.16;2049606;86;30919;-59
2022/01/13 12:05:42;;;;;;;26.97;14.58;;;;;;;5.16;72.83;101864.55;2049657;86;27610;-59
2022/01/13 12:09:03;;;;;;;30.30;15.85;;;;;;;5.19;72.91;101845.95;2046940;86;28710;-59
2022/01/13 12:11:56;;;;;;;27.35;14.93;;;;;;;5.23;72.84;101838.86;2040881;86;30113;-59
2022/01/13 12:15:16;;;;;;;33.45;18.23;;;;;;;5.23;72.82;101832.22;2045563;86;33752;-60
2022/01/13 12:18:41;;;;;;;30.88;17.20;;;;;;;5.23;72.71;101836.20;2045639;86;29628;-60
2022/01/13 12:21:59;;;;;;;29.90;17.07;;;;;;;5.22;72.74;101830.44;2036781;86;27773;-60
2022/01/13 12:25:01;;;;;;;30.20;16.05;;;;;;;5.22;72.81;101822.05;2043584;87;29904;-60
2022/01/13 12:28:16;;;;;;;31.02;15.30;;;;;;;5.25;72.76;101814.50;2045747;85;31893;-60
2022/01/13 12:31:28;;;;;;;30.05;14.28;;;;;;;5.24;72.66;101800.34;2044811;87;32972;-60
2022/01/13 12:34:39;;;;;;;28.17;15.05;;;;;;;5.26;72.64;101801.66;2045566;87;29637;-60
2022/01/13 12:37:42;;;;;;;28.95;15.58;;;;;;;5.28;72.72;101790.16;2045826;86;27615;-60
2022/01/13 12:41:15;;;;;;;27.42;14.85;;;;;;;5.34;72.69;101775.95;2045529;86;28672;-61
2022/01/13 12:44:19;;;;;;;30.90;16.55;;;;;;;5.38;72.53;101770.17;2042625;86;31977;-60
2022/01/13 12:47:16;;;;;;;33.95;16.97;;;;;;;5.44;72.62;101763.05;2024683;87;34341;-60
2022/01/13 12:50:23;;;;;;;30.43;16.55;;;;;;;5.50;72.61;101760.81;2024638;87;31001;-60
2022/01/13 12:53:32;;;;;;;27.27;15.83;;;;;;;5.57;72.53;101769.63;2045697;86;27544;-60
2022/01/13 12:56:34;;;;;;;27.20;14.93;;;;;;;5.63;72.21;101771.81;2045798;86;28814;-60
2022/01/13 12:59:37;;;;;;;27.73;16.52;;;;;;;5.62;72.37;101766.09;2050035;85;31895;-60
2022/01/13 13:02:58;;;;;;;32.05;16.42;;;;;;;5.64;72.36;101763.41;2048356;86;34253;-60
2022/01/13 13:06:02;;;;;;;21.77;13.48;;;;;;;5.66;72.15;101759.40;2049915;86;29671;-60
2022/01/13 13:09:12;;;;;;;27.65;14.58;;;;;;;5.65;72.15;101759.86;2028929;86;35542;-60
2022/01/13 13:12:24;;;;;;;24.18;13.30;;;;;;;5.65;72.17;101756.30;2049877;86;29116;-60
2022/01/13 13:18:25;;;;;;;25.32;12.88;;;;;;;5.60;71.95;101749.25;2049480;86;33848;-60
2022/01/13 13:21:28;;;;;;;31.15;13.80;;;;;;;5.56;71.93;101751.48;2049775;86;29646;-61
2022/01/13 13:24:36;;;;;;;27.15;13.58;;;;;;;5.52;71.85;101753.71;2049801;86;27736;-61
2022/01/13 13:27:38;;;;;;;29.27;12.60;;;;;;;5.46;71.83;101749.31;2046844;86;29546;-60
2022/01/13 13:30:51;;;;;;;26.68;12.88;;;;;;;5.41;71.86;101747.58;2045310;86;31810;-60
2022/01/13 13:34:12;;;;;;;37.25;18.73;;;;;;;5.38;71.86;101739.16;2045046;87;34241;-62
2022/01/13 13:37:13;;;;;;;73.35;30.97;;;;;;;5.34;71.87;101734.77;2045499;86;29655;-60
2022/01/13 13:40:26;;;;;;;72.67;28.70;;;;;;;5.30;71.84;101739.19;2045289;87;28313;-64
2022/01/13 13:43:33;;;;;;;110.92;39.27;;;;;;;5.26;71.88;101737.89;2043745;86;29556;-63
2022/01/13 13:46:37;;;;;;;98.35;36.17;;;;;;;5.22;71.87;101734.80;2040841;87;31073;-60
2022/01/13 13:49:41;;;;;;;106.22;38.20;;;;;;;5.19;71.92;101734.38;2040957;87;33699;-60
2022/01/13 13:52:43;;;;;;;87.55;32.78;;;;;;;5.15;71.91;101732.19;2021808;87;29732;-60
2022/01/13 13:56:04;;;;;;;131.22;44.65;;;;;;;5.11;71.94;101740.18;2059968;85;28036;-66
2022/01/13 13:59:12;;;;;;;75.65;29.00;;;;;;;5.06;71.98;101731.33;2026535;87;28743;-61
2022/01/13 14:02:36;;;;;;;53.73;25.85;;;;;;;5.01;71.99;101737.53;2028030;87;31117;-61
2022/01/13 14:05:39;;;;;;;42.83;21.05;;;;;;;4.98;72.00;101740.20;2014807;88;33487;-60
2022/01/13 14:08:52;;;;;;;28.98;16.57;;;;;;;4.91;71.97;101739.80;2023647;88;30854;-59
2022/01/13 14:11:55;;;;;;;22.20;13.45;;;;;;;4.87;72.01;101743.34;2048422;85;27676;-61
2022/01/13 14:14:58;;;;;;;25.05;13.58;;;;;;;4.80;72.08;101747.78;2081177;84;29669;-60
2022/01/13 14:18:15;;;;;;;25.60;13.83;;;;;;;4.76;72.17;101761.07;2062421;85;32272;-60
2022/01/13 14:21:17;;;;;;;29.18;17.17;;;;;;;4.71;72.20;101754.45;2082098;85;32918;-61
2022/01/13 14:24:37;;;;;;;28.50;17.70;;;;;;;4.66;72.28;101757.55;2081827;84;30848;-61
2022/01/13 14:27:56;;;;;;;24.87;13.48;;;;;;;4.62;72.27;101762.41;2056616;84;27736;-61